createdAt,value
2022-12-26T00:02:24.637Z,98823.38
2022-12-26T00:04:53.911Z,98822.56
2022-12-26T00:07:23.583Z,98814.19
2022-12-26T00:09:54.679Z,98816.94
2022-12-26T00:12:25.865Z,98816.84
2022-12-26T00:14:54.403Z,98810.25
2022-12-26T00:17:29.039Z,98791.94
2022-12-26T00:19:59.418Z,98799.53
2022-12-26T00:22:29.446Z,98806.13
2022-12-26T00:25:00.619Z,98802.97
2022-12-26T00:27:52.372Z,98790.44
2022-12-26T00:30:21.557Z,98771.59
2022-12-26T00:32:55.407Z,98781.00
2022-12-26T00:35:24.506Z,98769.56
2022-12-26T00:37:55.219Z,98758.59
2022-12-26T00:40:28.655Z,98766.72
2022-12-26T00:43:05.307Z,98770.63
2022-12-26T00:45:34.975Z,98788.66
2022-12-26T00:48:11.051Z,98779.00
2022-12-26T00:50:40.657Z,98786.00
2022-12-26T00:53:12.338Z,98795.31
2022-12-26T00:55:41.529Z,98795.00
2022-12-26T00:58:13.917Z,98792.56
2022-12-26T01:00:42.684Z,98767.25
2022-12-26T01:03:14.886Z,98775.94
2022-12-26T01:05:46.692Z,98777.94
2022-12-26T01:08:24.906Z,98772.03
2022-12-26T01:10:54.393Z,98771.06
2022-12-26T01:13:28.825Z,98780.38
2022-12-26T01:15:59.779Z,98786.22
2022-12-26T01:18:28.835Z,98788.34
2022-12-26T01:21:02.109Z,98792.88
2022-12-26T01:23:30.913Z,98781.53
2022-12-26T01:26:17.048Z,98794.44
2022-12-26T01:28:51.402Z,98797.09
2022-12-26T01:31:22.665Z,98798.38
2022-12-26T01:33:51.954Z,98802.63
2022-12-26T01:36:20.534Z,98797.75
2022-12-26T01:38:49.251Z,98796.56
2022-12-26T01:41:25.006Z,98797.00
2022-12-26T01:43:58.741Z,98788.50
2022-12-26T01:46:34.040Z,98800.47
2022-12-26T01:49:10.727Z,98797.88
2022-12-26T01:51:43.732Z,98799.88
2022-12-26T01:54:39.610Z,98797.28
2022-12-26T01:57:11.984Z,98811.81
2022-12-26T01:59:43.600Z,98811.69
2022-12-26T02:02:15.658Z,98815.53
2022-12-26T02:05:07.752Z,98812.84
2022-12-26T02:07:38.198Z,98820.31
2022-12-26T02:10:10.667Z,98818.81
2022-12-26T02:12:41.252Z,98825.44
2022-12-26T02:15:16.331Z,98828.31
2022-12-26T02:17:46.052Z,98819.22
2022-12-26T02:20:21.607Z,98819.53
2022-12-26T02:23:38.048Z,98822.28
2022-12-26T02:26:33.464Z,98815.19
2022-12-26T02:30:02.240Z,98824.31
2022-12-26T02:32:48.982Z,98822.63
2022-12-26T02:35:27.315Z,98815.00
2022-12-26T02:38:08.962Z,98822.75
2022-12-26T02:40:48.498Z,98810.44
2022-12-26T02:43:25.677Z,98822.44
2022-12-26T02:46:21.445Z,98812.56
2022-12-26T02:49:02.506Z,98818.59
2022-12-26T02:52:04.753Z,98822.94
2022-12-26T02:54:57.408Z,98818.91
2022-12-26T02:57:49.721Z,98824.75
2022-12-26T03:00:38.271Z,98835.03
2022-12-26T03:03:30.292Z,98829.09
2022-12-26T03:06:21.310Z,98827.06
2022-12-26T03:09:11.897Z,98839.47
2022-12-26T03:11:59.799Z,98822.59
2022-12-26T03:14:31.483Z,98827.59
2022-12-26T03:17:21.884Z,98822.50
2022-12-26T03:20:02.269Z,98813.19
2022-12-26T03:22:38.518Z,98809.03
2022-12-26T03:25:28.440Z,98810.94
2022-12-26T03:27:58.861Z,98816.34
2022-12-26T03:30:47.222Z,98824.94
2022-12-26T03:33:32.048Z,98812.19
2022-12-26T03:36:02.047Z,98824.94
2022-12-26T03:38:51.539Z,98815.38
2022-12-26T03:41:46.192Z,98785.22
2022-12-26T03:44:45.299Z,98773.75
2022-12-26T03:47:42.528Z,98776.03
2022-12-26T03:50:36.777Z,98776.22
2022-12-26T03:53:31.468Z,98770.31
2022-12-26T03:56:32.580Z,98770.75
2022-12-26T03:59:30.243Z,98772.22
2022-12-26T04:02:20.583Z,98775.19
2022-12-26T04:05:09.070Z,98781.66
2022-12-26T04:07:59.588Z,98784.72
2022-12-26T04:10:49.874Z,98788.75
2022-12-26T04:13:43.362Z,98782.09
2022-12-26T04:16:37.579Z,98788.13
2022-12-26T04:19:28.115Z,98788.09
2022-12-26T04:22:24.068Z,98777.91
2022-12-26T04:25:18.500Z,98780.13
2022-12-26T04:28:04.765Z,98779.28
2022-12-26T04:30:56.248Z,98783.88
2022-12-26T04:33:49.754Z,98787.97
2022-12-26T04:36:44.685Z,98802.31
2022-12-26T04:39:32.508Z,98785.44
2022-12-26T04:42:18.922Z,98813.66
2022-12-26T04:44:47.972Z,98793.56
2022-12-26T04:47:18.791Z,98778.16
2022-12-26T04:50:04.753Z,98783.81
2022-12-26T04:52:49.737Z,98784.31
2022-12-26T04:55:20.111Z,98796.16
2022-12-26T04:57:48.769Z,98792.22
2022-12-26T05:00:18.679Z,98777.78
2022-12-26T05:03:05.844Z,98784.38
2022-12-26T05:05:58.249Z,98801.72
2022-12-26T05:08:46.085Z,98791.22
2022-12-26T05:11:14.385Z,98804.72
2022-12-26T05:13:47.541Z,98786.97
2022-12-26T05:16:33.735Z,98799.09
2022-12-26T05:19:21.300Z,98792.44
2022-12-26T05:22:09.100Z,98776.47
2022-12-26T05:24:58.303Z,98778.78
2022-12-26T05:27:49.065Z,98779.56
2022-12-26T05:30:19.933Z,98783.97
2022-12-26T05:33:05.378Z,98779.13
2022-12-26T05:35:36.767Z,98785.91
2022-12-26T05:38:05.580Z,98778.81
2022-12-26T05:40:34.634Z,98782.84
2022-12-26T05:43:02.767Z,98790.06
2022-12-26T05:45:31.263Z,98788.75
2022-12-26T05:48:00.786Z,98803.72
2022-12-26T05:50:29.537Z,98789.84
2022-12-26T05:53:01.374Z,98783.81
2022-12-26T05:55:30.082Z,98782.38
2022-12-26T05:58:02.372Z,98790.16
2022-12-26T06:00:56.786Z,98789.84
2022-12-26T06:03:30.084Z,98806.25
2022-12-26T06:05:58.888Z,98813.03
2022-12-26T06:08:28.970Z,98811.22
2022-12-26T06:10:59.202Z,98814.25
2022-12-26T06:13:27.791Z,98807.38
2022-12-26T06:15:56.204Z,98798.63
2022-12-26T06:18:24.917Z,98810.66
2022-12-26T06:20:53.365Z,98818.19
2022-12-26T06:23:21.711Z,98813.66
2022-12-26T06:25:57.310Z,98816.72
2022-12-26T06:28:26.809Z,98826.88
2022-12-26T06:30:58.966Z,98820.84
2022-12-26T06:33:27.419Z,98822.09
2022-12-26T06:35:56.318Z,98837.81
2022-12-26T06:38:27.272Z,98846.72
2022-12-26T06:40:57.657Z,98841.91
2022-12-26T06:43:28.174Z,98838.53
2022-12-26T06:45:58.534Z,98831.84
2022-12-26T06:48:27.470Z,98835.03
2022-12-26T06:50:56.699Z,98849.56
2022-12-26T06:53:27.210Z,98854.63
2022-12-26T06:55:59.598Z,98846.56
2022-12-26T06:58:28.982Z,98846.91
2022-12-26T07:00:57.660Z,98849.13
2022-12-26T07:03:27.216Z,98854.53
2022-12-26T07:05:56.194Z,98843.81
2022-12-26T07:08:27.938Z,98850.28
2022-12-26T07:11:04.181Z,98858.03
2022-12-26T07:13:33.897Z,98852.53
2022-12-26T07:16:04.637Z,98863.09
2022-12-26T07:18:35.911Z,98863.75
2022-12-26T07:21:09.763Z,98862.59
2022-12-26T07:23:40.560Z,98860.16
2022-12-26T07:26:11.669Z,98863.63
2022-12-26T07:28:40.367Z,98866.19
2022-12-26T07:31:10.949Z,98874.03
2022-12-26T07:33:41.241Z,98875.41
2022-12-26T07:36:10.101Z,98867.88
2022-12-26T07:38:38.816Z,98870.00
2022-12-26T07:41:20.675Z,98868.81
2022-12-26T07:43:50.429Z,98866.50
2022-12-26T07:46:18.896Z,98885.88
2022-12-26T07:48:48.827Z,98880.69
2022-12-26T07:51:18.768Z,98885.88
2022-12-26T07:53:52.500Z,98886.22
2022-12-26T07:56:21.113Z,98887.50
2022-12-26T07:58:51.609Z,98900.81
2022-12-26T08:01:20.820Z,98896.06
2022-12-26T08:03:50.431Z,98903.91
2022-12-26T08:06:20.880Z,98920.34
2022-12-26T08:08:51.437Z,98921.41
2022-12-26T08:11:23.704Z,98914.63
2022-12-26T08:13:54.161Z,98932.31
2022-12-26T08:16:24.609Z,98917.91
2022-12-26T08:18:53.420Z,98921.19
2022-12-26T08:21:22.041Z,98914.41
2022-12-26T08:23:50.950Z,98909.53
2022-12-26T08:26:23.518Z,98896.72
2022-12-26T08:28:54.048Z,98911.13
2022-12-26T08:33:58.646Z,98897.22
2022-12-26T08:36:27.546Z,98900.31
2022-12-26T08:38:56.677Z,98896.91
2022-12-26T08:41:25.816Z,98908.56
2022-12-26T08:46:50.242Z,98927.44
2022-12-26T08:49:18.764Z,98926.19
2022-12-26T08:51:48.989Z,98927.00
2022-12-26T08:54:20.202Z,98939.22
2022-12-26T08:56:49.909Z,98939.28
2022-12-26T08:59:28.183Z,98942.38
2022-12-26T09:01:57.283Z,98935.16
2022-12-26T09:04:27.115Z,98961.03
2022-12-26T09:06:58.228Z,98955.22
2022-12-26T09:09:26.393Z,98955.84
2022-12-26T09:11:55.301Z,98967.50
2022-12-26T09:14:26.565Z,98954.78
2022-12-26T09:16:56.774Z,98965.59
2022-12-26T09:19:29.967Z,98978.09
2022-12-26T09:22:12.120Z,98967.50
2022-12-26T09:24:43.853Z,98957.03
2022-12-26T09:27:17.814Z,98966.63
2022-12-26T09:29:51.064Z,98984.53
2022-12-26T09:32:19.649Z,98996.53
2022-12-26T09:34:53.949Z,99012.00
2022-12-26T09:37:22.580Z,99001.50
2022-12-26T09:39:51.058Z,99003.19
2022-12-26T09:42:30.355Z,98996.63
2022-12-26T09:45:07.891Z,99008.94
2022-12-26T09:47:42.116Z,99014.53
2022-12-26T09:50:18.480Z,98982.75
2022-12-26T09:52:52.513Z,98978.38
2022-12-26T09:55:32.250Z,98983.06
2022-12-26T09:58:08.775Z,98994.22
2022-12-26T10:00:48.575Z,98968.03
2022-12-26T10:03:17.011Z,98948.13
2022-12-26T10:06:04.667Z,98974.28
2022-12-26T10:08:46.625Z,98993.06
2022-12-26T10:11:21.279Z,98991.03
2022-12-26T10:13:57.220Z,98998.69
2022-12-26T10:16:43.918Z,98993.50
2022-12-26T10:19:32.415Z,98978.94
2022-12-26T10:22:16.836Z,98969.00
2022-12-26T10:24:47.371Z,98984.06
2022-12-26T10:27:18.573Z,98976.41
2022-12-26T10:29:54.307Z,98990.94
2022-12-26T10:32:31.177Z,98988.63
2022-12-26T10:35:01.098Z,98978.63
2022-12-26T10:37:34.664Z,98995.50
2022-12-26T10:40:15.736Z,98968.34
2022-12-26T10:42:45.975Z,98976.50
2022-12-26T10:45:17.965Z,98969.59
2022-12-26T10:47:49.825Z,98979.88
2022-12-26T10:50:23.934Z,98973.75
2022-12-26T10:52:58.962Z,98968.72
2022-12-26T10:55:31.585Z,98962.84
2022-12-26T10:58:04.959Z,98968.72
2022-12-26T11:00:33.646Z,98965.63
2022-12-26T11:03:08.712Z,98955.97
2022-12-26T11:06:07.662Z,98957.34
2022-12-26T11:08:43.292Z,98968.16
2022-12-26T11:11:15.780Z,98975.50
2022-12-26T11:13:50.540Z,98992.69
2022-12-26T11:16:29.350Z,98987.63
2022-12-26T11:19:09.647Z,98990.19
2022-12-26T11:21:37.841Z,98990.94
2022-12-26T11:24:24.536Z,98994.72
2022-12-26T11:27:12.740Z,98979.16
2022-12-26T11:29:42.783Z,98981.88
2022-12-26T11:32:20.541Z,98989.09
2022-12-26T11:34:52.769Z,98972.31
2022-12-26T11:37:27.697Z,98987.69
2022-12-26T11:40:00.217Z,98986.78
2022-12-26T11:42:32.194Z,98979.31
2022-12-26T11:45:10.283Z,98984.13
2022-12-26T11:47:39.478Z,98988.59
2022-12-26T11:50:23.636Z,98992.84
2022-12-26T11:52:55.441Z,98988.34
2022-12-26T11:55:43.103Z,98985.91
2022-12-26T11:58:25.606Z,98983.13
2022-12-26T12:01:09.695Z,98971.38
2022-12-26T12:03:48.860Z,98975.69
2022-12-26T12:06:33.052Z,98976.75
2022-12-26T12:09:13.297Z,98969.63
2022-12-26T12:11:50.315Z,98964.09
2022-12-26T12:14:30.452Z,98964.75
2022-12-26T12:17:18.226Z,98967.41
2022-12-26T12:20:04.658Z,98966.06
2022-12-26T12:23:19.040Z,98976.00
2022-12-26T12:26:01.941Z,98981.59
2022-12-26T12:29:03.772Z,98958.75
2022-12-26T12:31:47.224Z,98972.78
2022-12-26T12:34:25.218Z,98952.34
2022-12-26T12:37:04.358Z,98946.09
2022-12-26T12:39:53.076Z,98942.25
2022-12-26T12:42:39.172Z,98930.78
2022-12-26T12:45:27.294Z,98911.59
2022-12-26T12:48:18.521Z,98928.13
2022-12-26T12:50:56.905Z,98925.25
2022-12-26T12:53:42.118Z,98933.88
2022-12-26T12:56:26.125Z,98942.69
2022-12-26T12:59:06.289Z,98934.19
2022-12-26T13:01:44.627Z,98926.34
2022-12-26T13:04:18.656Z,98933.28
2022-12-26T13:06:54.306Z,98946.09
2022-12-26T13:09:26.994Z,98927.34
2022-12-26T13:12:02.989Z,98916.00
2022-12-26T13:14:37.931Z,98921.19
2022-12-26T13:17:12.817Z,98917.38
2022-12-26T13:19:51.702Z,98917.94
2022-12-26T13:22:51.057Z,98918.53
2022-12-26T13:25:20.197Z,98914.22
2022-12-26T13:27:52.771Z,98912.00
2022-12-26T13:30:22.738Z,98913.59
2022-12-26T13:32:59.275Z,98910.38
2022-12-26T13:35:54.106Z,98915.19
2022-12-26T13:38:25.591Z,98913.09
2022-12-26T13:41:24.836Z,98909.78
2022-12-26T13:44:05.086Z,98923.81
2022-12-26T13:46:40.177Z,98915.00
2022-12-26T13:49:29.652Z,98912.00
2022-12-26T13:52:00.780Z,98920.84
2022-12-26T13:54:30.669Z,98922.97
2022-12-26T13:57:45.193Z,98916.66
2022-12-26T14:00:24.611Z,98917.31
2022-12-26T14:03:19.501Z,98929.63
2022-12-26T14:06:24.959Z,98925.06
2022-12-26T14:09:35.542Z,98915.56
2022-12-26T14:12:22.597Z,98917.84
2022-12-26T14:15:05.276Z,98907.72
2022-12-26T14:17:47.341Z,98915.56
2022-12-26T14:20:31.617Z,98909.34
2022-12-26T14:23:21.795Z,98909.47
2022-12-26T14:26:00.833Z,98923.88
2022-12-26T14:28:39.910Z,98917.00
2022-12-26T14:31:22.225Z,98937.91
2022-12-26T14:34:08.801Z,98928.19
2022-12-26T14:36:53.486Z,98959.03
2022-12-26T14:39:35.449Z,98958.94
2022-12-26T14:42:41.649Z,98958.59
2022-12-26T14:45:43.993Z,98965.06
2022-12-26T14:48:54.933Z,98974.97
2022-12-26T14:51:44.341Z,98959.97
2022-12-26T14:54:51.074Z,98970.53
2022-12-26T14:57:46.226Z,98964.91
2022-12-26T15:00:28.984Z,98966.53
2022-12-26T15:03:30.208Z,98982.38
2022-12-26T15:06:17.125Z,98981.47
2022-12-26T15:09:07.322Z,98970.75
2022-12-26T15:12:14.980Z,98975.91
2022-12-26T15:15:10.149Z,98983.06
2022-12-26T15:17:52.998Z,98988.44
2022-12-26T15:21:19.555Z,99003.94
2022-12-26T15:25:17.009Z,99013.00
2022-12-26T15:27:59.576Z,99009.09
2022-12-26T15:30:44.482Z,99001.63
2022-12-26T15:33:20.948Z,98994.97
2022-12-26T15:35:53.464Z,99006.50
2022-12-26T15:38:34.194Z,99001.94
2022-12-26T15:41:17.004Z,99008.50
2022-12-26T15:44:06.450Z,99016.03
2022-12-26T15:46:41.590Z,99018.94
2022-12-26T15:49:33.029Z,99020.94
2022-12-26T15:52:13.255Z,99029.81
2022-12-26T15:55:09.950Z,99026.59
2022-12-26T15:57:52.043Z,99021.47
2022-12-26T16:00:23.778Z,99010.06
2022-12-26T16:03:08.881Z,99015.06
2022-12-26T16:05:52.021Z,99014.91
2022-12-26T16:08:51.444Z,99008.56
2022-12-26T16:11:24.087Z,98998.72
2022-12-26T16:14:15.829Z,98995.44
2022-12-26T16:16:44.825Z,98991.00
2022-12-26T16:19:17.786Z,98981.06
2022-12-26T16:22:08.907Z,98999.97
2022-12-26T16:24:39.239Z,99131.03
2022-12-26T16:27:10.921Z,99085.66
2022-12-26T16:29:58.010Z,99108.75
2022-12-26T16:32:33.541Z,99096.06
2022-12-26T16:35:02.563Z,99092.47
2022-12-26T16:37:33.282Z,99082.44
2022-12-26T16:40:21.450Z,99088.19
2022-12-26T16:43:01.553Z,99094.00
2022-12-26T16:45:37.811Z,99093.56
2022-12-26T16:48:09.063Z,99099.75
2022-12-26T16:50:46.278Z,99101.09
2022-12-26T16:53:17.919Z,99103.34
2022-12-26T16:55:49.380Z,99109.09
2022-12-26T16:58:25.672Z,99104.00
2022-12-26T17:01:04.424Z,99095.16
2022-12-26T17:03:42.852Z,99092.59
2022-12-26T17:06:17.288Z,99115.41
2022-12-26T17:08:51.910Z,99119.03
2022-12-26T17:11:31.816Z,99123.72
2022-12-26T17:14:01.985Z,99117.00
2022-12-26T17:16:35.017Z,99127.69
2022-12-26T17:19:26.446Z,99127.28
2022-12-26T17:22:21.752Z,99132.94
2022-12-26T17:24:54.389Z,99138.19
2022-12-26T17:27:25.177Z,99144.41
2022-12-26T17:30:02.113Z,99126.25
2022-12-26T17:32:40.107Z,99145.75
2022-12-26T17:35:14.389Z,99145.56
2022-12-26T17:37:49.199Z,99142.69
2022-12-26T17:40:27.559Z,99154.50
2022-12-26T17:42:58.205Z,99160.34
2022-12-26T17:45:35.245Z,99166.56
2022-12-26T17:48:06.413Z,99178.53
2022-12-26T17:50:38.087Z,99182.41
2022-12-26T17:53:15.789Z,99166.50
2022-12-26T17:55:45.241Z,99171.75
2022-12-26T17:58:14.684Z,99183.72
2022-12-26T18:00:45.094Z,99178.06
2022-12-26T18:03:16.911Z,99184.94
2022-12-26T18:05:50.178Z,99193.94
2022-12-26T18:08:30.238Z,99191.44
2022-12-26T18:11:02.527Z,99196.22
2022-12-26T18:13:41.571Z,99196.50
2022-12-26T18:16:15.951Z,99195.91
2022-12-26T18:18:53.062Z,99201.88
2022-12-26T18:21:23.394Z,99203.53
2022-12-26T18:23:52.675Z,99206.66
2022-12-26T18:26:34.311Z,99220.19
2022-12-26T18:29:06.156Z,99218.06
2022-12-26T18:31:40.837Z,99221.34
2022-12-26T18:34:13.144Z,99221.28
2022-12-26T18:36:44.114Z,99230.81
2022-12-26T18:39:16.089Z,99233.16
2022-12-26T18:41:45.996Z,99236.97
2022-12-26T18:44:15.885Z,99236.72
2022-12-26T18:46:45.491Z,99241.91
2022-12-26T18:49:20.789Z,99251.97
2022-12-26T18:51:49.594Z,99250.47
2022-12-26T18:54:23.428Z,99248.59
2022-12-26T18:56:53.415Z,99255.28
2022-12-26T18:59:24.853Z,99258.63
2022-12-26T19:01:56.588Z,99269.22
2022-12-26T19:04:32.692Z,99268.78
2022-12-26T19:07:02.687Z,99278.31
2022-12-26T19:09:33.097Z,99276.00
2022-12-26T19:12:02.083Z,99282.94
2022-12-26T19:14:31.861Z,99295.47
2022-12-26T19:17:00.661Z,99292.91
2022-12-26T19:19:32.069Z,99296.94
2022-12-26T19:22:00.714Z,99290.09
2022-12-26T19:24:31.699Z,99284.41
2022-12-26T19:27:02.792Z,99285.97
2022-12-26T19:29:31.428Z,99281.00
2022-12-26T19:32:00.899Z,99280.44
2022-12-26T19:34:35.667Z,99271.00
2022-12-26T19:37:07.808Z,99287.25
2022-12-26T19:39:36.254Z,99280.06
2022-12-26T19:42:05.054Z,99279.22
2022-12-26T19:44:35.570Z,99276.13
2022-12-26T19:47:12.685Z,99291.34
2022-12-26T19:49:51.833Z,99303.22
2022-12-26T19:52:20.844Z,99305.41
2022-12-26T19:54:49.437Z,99307.81
2022-12-26T19:57:19.814Z,99312.25
2022-12-26T19:59:50.823Z,99330.97
2022-12-26T20:02:20.990Z,99329.53
2022-12-26T20:04:51.280Z,99340.47
2022-12-26T20:07:20.272Z,99353.75
2022-12-26T20:09:51.094Z,99353.53
2022-12-26T20:12:21.264Z,99361.28
2022-12-26T20:14:50.965Z,99361.66
2022-12-26T20:17:24.181Z,99362.28
2022-12-26T20:19:54.814Z,99365.91
2022-12-26T20:22:24.120Z,99374.75
2022-12-26T20:24:54.007Z,99369.94
2022-12-26T20:27:22.924Z,99371.75
2022-12-26T20:29:54.367Z,99384.41
2022-12-26T20:32:23.538Z,99411.16
2022-12-26T20:34:54.890Z,99401.63
2022-12-26T20:37:26.326Z,99415.03
2022-12-26T20:39:55.012Z,99419.69
2022-12-26T20:42:24.593Z,99430.66
2022-12-26T20:44:55.658Z,99440.38
2022-12-26T20:47:27.096Z,99435.25
2022-12-26T20:49:57.678Z,99458.28
2022-12-26T20:52:26.501Z,99445.66
2022-12-26T20:54:57.430Z,99473.91
2022-12-26T20:57:25.663Z,99468.78
2022-12-26T20:59:54.444Z,99478.78
2022-12-26T21:02:23.209Z,99488.22
2022-12-26T21:04:56.898Z,99488.63
2022-12-26T21:07:28.316Z,99491.50
2022-12-26T21:09:58.071Z,99511.06
2022-12-26T21:12:27.886Z,99523.72
2022-12-26T21:14:57.784Z,99522.09
2022-12-26T21:17:28.397Z,99534.78
2022-12-26T21:19:57.304Z,99542.72
2022-12-26T21:22:27.616Z,99541.78
2022-12-26T21:24:56.685Z,99539.22
2022-12-26T21:27:24.989Z,99545.34
2022-12-26T21:29:55.889Z,99557.69
2022-12-26T21:32:30.699Z,99554.31
2022-12-26T21:34:59.394Z,99559.06
2022-12-26T21:37:47.522Z,99562.03
2022-12-26T21:40:17.841Z,99553.25
2022-12-26T21:42:49.405Z,99573.69
2022-12-26T21:45:18.081Z,99572.84
2022-12-26T21:47:47.749Z,99579.84
2022-12-26T21:50:16.315Z,99587.16
2022-12-26T21:52:48.547Z,99594.03
2022-12-26T21:55:36.392Z,99589.88
2022-12-26T21:58:08.158Z,99599.63
2022-12-26T22:00:36.924Z,99601.38
2022-12-26T22:03:24.316Z,99607.56
2022-12-26T22:05:53.922Z,99612.97
2022-12-26T22:08:23.802Z,99615.47
2022-12-26T22:11:14.414Z,99633.13
2022-12-26T22:13:45.727Z,99637.63
2022-12-26T22:16:14.565Z,99635.16
2022-12-26T22:18:46.642Z,99632.53
2022-12-26T22:21:16.706Z,99646.81
2022-12-26T22:23:47.673Z,99650.44
2022-12-26T22:26:16.904Z,99664.63
2022-12-26T22:28:46.081Z,99661.06
2022-12-26T22:31:22.424Z,99663.47
2022-12-26T22:33:56.553Z,99678.41
2022-12-26T22:36:25.515Z,99684.66
2022-12-26T22:38:55.690Z,99694.34
2022-12-26T22:41:25.343Z,99696.91
2022-12-26T22:43:56.623Z,99712.06
2022-12-26T22:46:26.867Z,99717.00
2022-12-26T22:48:55.549Z,99720.44
2022-12-26T22:51:26.966Z,99717.75
2022-12-26T22:53:58.680Z,99725.38
2022-12-26T22:56:27.886Z,99732.72
2022-12-26T22:58:56.720Z,99741.44
2022-12-26T23:01:26.287Z,99736.19
2022-12-26T23:03:55.586Z,99730.94
2022-12-26T23:06:27.347Z,99740.59
2022-12-26T23:09:01.600Z,99739.97
2022-12-26T23:11:35.037Z,99747.53
2022-12-26T23:14:05.483Z,99743.47
2022-12-26T23:16:39.223Z,99747.81
2022-12-26T23:19:33.461Z,99747.84
2022-12-26T23:22:03.009Z,99750.69
2022-12-26T23:24:34.455Z,99756.88
2022-12-26T23:27:18.566Z,99754.16
2022-12-26T23:30:04.829Z,99762.03
2022-12-26T23:32:33.292Z,99752.16
2022-12-26T23:35:01.733Z,99767.66
2022-12-26T23:37:31.240Z,99765.63
2022-12-26T23:40:01.320Z,99766.34
2022-12-26T23:42:29.597Z,99769.16
2022-12-26T23:44:58.049Z,99773.44
2022-12-26T23:47:30.545Z,99764.91
2022-12-26T23:49:59.178Z,99776.25
2022-12-26T23:52:30.473Z,99767.53
2022-12-26T23:55:02.680Z,99767.25
2022-12-26T23:57:31.710Z,99769.00
